createdAt,value
2023-03-02T00:01:28.693Z,111.70
2023-03-02T00:03:59.326Z,111.20
2023-03-02T00:08:57.413Z,117.20
2023-03-02T00:11:25.610Z,122.90
2023-03-02T00:13:53.120Z,117.50
2023-03-02T00:16:20.689Z,115.10
2023-03-02T00:18:48.193Z,117.70
2023-03-02T00:21:15.790Z,120.00
2023-03-02T00:23:43.330Z,117.90
2023-03-02T00:26:10.958Z,106.50
2023-03-02T00:28:38.517Z,118.80
2023-03-02T00:31:06.979Z,118.70
2023-03-02T00:33:34.637Z,105.40
2023-03-02T00:36:02.944Z,94.80
2023-03-02T00:38:30.788Z,106.90
2023-03-02T00:40:58.289Z,92.30
2023-03-02T00:43:26.664Z,100.50
2023-03-02T00:45:55.171Z,103.60
2023-03-02T00:48:23.001Z,98.00
2023-03-02T00:50:50.721Z,102.50
2023-03-02T00:53:18.276Z,106.10
2023-03-02T00:55:54.055Z,104.30
2023-03-02T00:58:22.057Z,95.10
2023-03-02T01:00:49.688Z,103.60
2023-03-02T01:03:17.342Z,103.70
2023-03-02T01:05:45.036Z,109.50
2023-03-02T01:08:12.604Z,107.70
2023-03-02T01:10:40.620Z,101.40
2023-03-02T01:13:08.250Z,104.00
2023-03-02T01:15:35.792Z,102.40
2023-03-02T01:18:03.487Z,99.70
2023-03-02T01:20:31.062Z,87.60
2023-03-02T01:22:58.591Z,100.40
2023-03-02T01:25:26.308Z,99.50
2023-03-02T01:27:54.206Z,97.30
2023-03-02T01:30:22.043Z,92.70
2023-03-02T01:32:49.607Z,103.40
2023-03-02T01:35:17.256Z,100.80
2023-03-02T01:37:44.817Z,99.50
2023-03-02T01:40:13.770Z,99.00
2023-03-02T01:42:47.124Z,102.90
2023-03-02T01:45:44.489Z,100.50
2023-03-02T01:48:15.737Z,101.00
2023-03-02T01:50:43.409Z,99.90
2023-03-02T01:53:13.108Z,97.60
2023-03-02T01:55:41.052Z,97.10
2023-03-02T01:58:08.724Z,104.20
2023-03-02T02:00:38.570Z,105.70
2023-03-02T02:03:14.285Z,99.70
2023-03-02T02:05:46.256Z,106.90
2023-03-02T02:08:14.674Z,103.20
2023-03-02T02:10:42.425Z,104.80
2023-03-02T02:13:11.191Z,100.10
2023-03-02T02:15:40.256Z,108.70
2023-03-02T02:18:07.847Z,103.60
2023-03-02T02:20:43.191Z,99.70
2023-03-02T02:23:34.156Z,103.20
2023-03-02T02:26:13.529Z,100.60
2023-03-02T02:28:47.340Z,96.90
2023-03-02T02:31:42.075Z,98.40
2023-03-02T02:34:22.695Z,102.80
2023-03-02T02:36:55.215Z,95.80
2023-03-02T02:39:30.239Z,92.30
2023-03-02T02:42:01.958Z,100.60
2023-03-02T02:44:31.050Z,110.00
2023-03-02T02:46:58.635Z,110.60
2023-03-02T02:49:31.925Z,108.90
2023-03-02T02:51:59.943Z,99.20
2023-03-02T02:54:29.909Z,108.90
2023-03-02T02:57:01.101Z,112.20
2023-03-02T02:59:33.101Z,114.70
2023-03-02T03:02:01.225Z,111.20
2023-03-02T03:04:31.103Z,107.90
2023-03-02T03:07:06.544Z,108.90
2023-03-02T03:09:34.136Z,106.80
2023-03-02T03:12:08.374Z,117.90
2023-03-02T03:14:39.791Z,105.60
2023-03-02T03:17:08.185Z,100.00
2023-03-02T03:19:35.742Z,112.60
2023-03-02T03:22:03.325Z,113.00
2023-03-02T03:24:33.405Z,105.50
2023-03-02T03:27:02.257Z,112.30
2023-03-02T03:29:30.257Z,100.20
2023-03-02T03:31:59.324Z,96.20
2023-03-02T03:34:28.440Z,106.70
2023-03-02T03:36:56.512Z,111.60
2023-03-02T03:39:24.020Z,105.80
2023-03-02T03:41:51.557Z,97.60
2023-03-02T03:44:19.085Z,85.30
2023-03-02T03:46:46.634Z,105.90
2023-03-02T03:49:14.286Z,110.60
2023-03-02T03:51:41.990Z,106.50
2023-03-02T03:54:10.639Z,102.20
2023-03-02T03:56:41.779Z,113.40
2023-03-02T03:59:11.111Z,112.00
2023-03-02T04:01:48.089Z,110.80
2023-03-02T04:09:13.142Z,83.30
2023-03-02T04:11:43.244Z,89.40
2023-03-02T04:14:11.637Z,90.30
2023-03-02T04:16:40.646Z,87.70
2023-03-02T04:19:09.601Z,103.40
2023-03-02T04:21:43.695Z,97.40
2023-03-02T04:24:12.057Z,93.20
2023-03-02T04:26:41.728Z,98.20
2023-03-02T04:29:10.996Z,101.20
2023-03-02T04:31:39.620Z,93.40
2023-03-02T04:34:07.907Z,91.40
2023-03-02T04:36:38.805Z,89.60
2023-03-02T04:39:07.726Z,86.90
2023-03-02T04:41:35.436Z,88.10
2023-03-02T04:44:03.549Z,97.80
2023-03-02T04:46:31.999Z,98.00
2023-03-02T04:49:00.332Z,97.60
2023-03-02T04:51:33.989Z,92.30
2023-03-02T04:54:05.486Z,92.60
2023-03-02T04:56:34.018Z,94.80
2023-03-02T04:59:02.112Z,93.30
2023-03-02T05:01:29.723Z,94.90
2023-03-02T05:03:57.270Z,89.10
2023-03-02T05:06:24.801Z,89.70
2023-03-02T05:08:53.521Z,95.70
2023-03-02T05:11:21.171Z,97.20
2023-03-02T05:13:54.731Z,89.80
2023-03-02T05:16:23.383Z,104.30
2023-03-02T05:18:50.985Z,95.70
2023-03-02T05:21:18.926Z,93.30
2023-03-02T05:23:46.955Z,90.80
2023-03-02T05:26:14.642Z,91.60
2023-03-02T05:28:43.172Z,92.40
2023-03-02T05:31:18.680Z,89.00
2023-03-02T05:33:47.069Z,76.50
2023-03-02T05:36:17.696Z,83.20
2023-03-02T05:38:46.832Z,94.20
2023-03-02T05:41:15.097Z,84.70
2023-03-02T05:43:42.692Z,102.10
2023-03-02T05:46:10.343Z,98.90
2023-03-02T05:48:37.918Z,96.10
2023-03-02T05:51:05.757Z,82.50
2023-03-02T05:53:33.309Z,91.70
2023-03-02T05:56:00.838Z,86.80
2023-03-02T05:58:28.478Z,89.00
2023-03-02T06:00:56.030Z,94.60
2023-03-02T06:03:23.624Z,81.80
2023-03-02T06:05:51.342Z,86.70
2023-03-02T06:08:20.461Z,87.40
2023-03-02T06:10:48.423Z,88.00
2023-03-02T06:13:16.421Z,87.50
2023-03-02T06:15:44.303Z,99.80
2023-03-02T06:18:11.873Z,105.80
2023-03-02T06:20:40.219Z,98.40
2023-03-02T06:23:07.888Z,92.20
2023-03-02T06:25:35.444Z,95.30
2023-03-02T06:28:03.054Z,112.90
2023-03-02T06:30:30.606Z,97.80
2023-03-02T06:32:58.146Z,87.60
2023-03-02T06:35:25.849Z,93.80
2023-03-02T06:37:53.569Z,96.00
2023-03-02T06:40:21.144Z,88.80
2023-03-02T06:42:48.722Z,79.60
2023-03-02T06:45:16.465Z,82.20
2023-03-02T06:47:44.042Z,78.70
2023-03-02T06:50:11.874Z,87.20
2023-03-02T06:52:39.486Z,78.00
2023-03-02T06:55:07.541Z,88.70
2023-03-02T06:57:35.102Z,107.30
2023-03-02T07:00:06.705Z,96.20
2023-03-02T07:02:34.293Z,84.00
2023-03-02T07:05:02.507Z,98.30
2023-03-02T07:07:30.036Z,96.00
2023-03-02T07:09:57.548Z,86.30
2023-03-02T07:12:25.267Z,100.80
2023-03-02T07:14:52.867Z,98.90
2023-03-02T07:17:20.379Z,96.00
2023-03-02T07:19:47.949Z,96.30
2023-03-02T07:22:15.511Z,90.20
2023-03-02T07:24:45.046Z,93.80
2023-03-02T07:27:12.656Z,97.30
2023-03-02T07:29:40.333Z,81.20
2023-03-02T07:32:08.536Z,87.40
2023-03-02T07:34:36.845Z,84.40
2023-03-02T07:37:04.497Z,79.40
2023-03-02T07:39:32.382Z,82.00
2023-03-02T07:42:01.156Z,76.90
2023-03-02T07:44:28.887Z,67.50
2023-03-02T07:46:56.799Z,69.50
2023-03-02T07:49:24.475Z,74.40
2023-03-02T07:51:52.289Z,79.90
2023-03-02T07:54:19.876Z,76.70
2023-03-02T07:56:47.563Z,62.30
2023-03-02T07:59:15.153Z,65.70
2023-03-02T08:01:42.903Z,59.60
2023-03-02T08:04:10.505Z,58.60
2023-03-02T08:06:39.230Z,54.40
2023-03-02T08:09:08.121Z,51.90
2023-03-02T08:11:35.785Z,46.50
2023-03-02T08:14:03.359Z,48.80
2023-03-02T08:16:30.976Z,51.20
2023-03-02T08:18:59.895Z,50.70
2023-03-02T08:21:29.140Z,52.70
2023-03-02T08:23:57.968Z,44.20
2023-03-02T08:26:25.571Z,49.50
2023-03-02T08:28:53.129Z,49.60
2023-03-02T08:31:20.725Z,38.40
2023-03-02T08:33:48.268Z,46.40
2023-03-02T08:36:18.671Z,54.10
2023-03-02T08:41:17.226Z,42.60
2023-03-02T08:43:44.834Z,44.50
2023-03-02T08:46:14.062Z,43.80
2023-03-02T08:48:42.117Z,46.20
2023-03-02T08:51:13.269Z,36.10
2023-03-02T08:53:43.598Z,40.30
2023-03-02T08:56:19.923Z,34.70
2023-03-02T08:58:49.492Z,40.00
2023-03-02T09:01:19.746Z,37.80
2023-03-02T09:03:47.413Z,35.40
2023-03-02T09:06:15.678Z,37.30
2023-03-02T09:08:43.891Z,39.10
2023-03-02T09:11:11.402Z,32.20
2023-03-02T09:13:39.007Z,25.10
2023-03-02T09:16:06.955Z,30.00
2023-03-02T09:18:35.721Z,25.10
2023-03-02T09:21:04.172Z,24.80
2023-03-02T09:23:32.887Z,24.80
2023-03-02T09:26:00.476Z,28.30
2023-03-02T09:28:28.200Z,24.40
2023-03-02T09:30:59.581Z,24.10
2023-03-02T09:33:28.019Z,22.50
2023-03-02T09:35:55.690Z,22.80
2023-03-02T09:38:23.945Z,27.10
2023-03-02T09:41:17.603Z,21.80
2023-03-02T09:44:22.611Z,16.00
2023-03-02T09:46:54.408Z,17.80
2023-03-02T09:49:27.598Z,16.90
2023-03-02T09:52:09.731Z,17.60
2023-03-02T09:54:38.794Z,16.10
2023-03-02T09:57:21.907Z,20.60
2023-03-02T09:59:59.857Z,20.80
2023-03-02T10:02:37.898Z,24.60
2023-03-02T10:06:16.993Z,17.70
2023-03-02T10:08:44.660Z,25.70
2023-03-02T10:11:12.186Z,20.30
2023-03-02T10:14:02.820Z,23.00
2023-03-02T10:16:36.587Z,23.00
2023-03-02T10:19:25.032Z,23.70
2023-03-02T10:22:38.632Z,17.60
2023-03-02T10:25:31.148Z,18.60
2023-03-02T10:28:12.659Z,20.40
2023-03-02T10:30:40.343Z,17.60
2023-03-02T10:33:19.636Z,17.90
2023-03-02T10:35:49.826Z,17.80
2023-03-02T10:38:19.175Z,19.00
2023-03-02T10:40:48.865Z,20.60
2023-03-02T10:43:35.274Z,22.70
2023-03-02T10:46:05.729Z,16.40
2023-03-02T10:48:34.136Z,16.30
2023-03-02T10:51:01.741Z,17.80
2023-03-02T10:53:29.333Z,18.70
2023-03-02T10:55:56.970Z,16.30
2023-03-02T10:58:30.640Z,18.70
2023-03-02T11:01:15.061Z,19.80
2023-03-02T11:03:42.883Z,14.40
2023-03-02T11:06:21.323Z,16.60
2023-03-02T11:09:21.525Z,15.80
2023-03-02T11:11:54.434Z,19.60
2023-03-02T11:14:22.490Z,15.00
2023-03-02T11:16:51.879Z,18.00
2023-03-02T11:19:35.201Z,16.00
2023-03-02T11:22:24.384Z,14.50
2023-03-02T11:24:57.984Z,14.80
2023-03-02T11:27:29.708Z,15.90
2023-03-02T11:30:11.512Z,14.80
2023-03-02T11:32:47.948Z,17.10
2023-03-02T11:35:31.652Z,17.60
2023-03-02T11:38:23.569Z,18.80
2023-03-02T11:41:02.881Z,13.80
2023-03-02T11:43:30.795Z,14.50
2023-03-02T11:46:01.798Z,15.30
2023-03-02T11:48:33.368Z,12.00
2023-03-02T11:51:04.509Z,11.60
2023-03-02T11:53:41.541Z,14.40
2023-03-02T11:56:09.663Z,14.90
2023-03-02T11:58:38.771Z,14.10
2023-03-02T12:01:13.198Z,14.60
2023-03-02T12:03:41.937Z,11.40
2023-03-02T12:06:18.838Z,13.60
2023-03-02T12:08:48.114Z,10.70
2023-03-02T12:13:59.324Z,11.60
2023-03-02T12:16:43.502Z,12.30
2023-03-02T12:19:25.673Z,10.50
2023-03-02T12:22:03.067Z,11.30
2023-03-02T12:24:33.576Z,10.20
2023-03-02T12:27:15.048Z,12.90
2023-03-02T12:32:37.645Z,10.20
2023-03-02T12:35:08.061Z,11.40
2023-03-02T12:37:51.854Z,10.80
2023-03-02T12:40:44.227Z,11.70
2023-03-02T12:43:33.886Z,10.10
2023-03-02T12:46:16.813Z,9.50
2023-03-02T12:48:58.013Z,8.30
2023-03-02T12:51:33.379Z,8.80
2023-03-02T12:54:14.890Z,9.90
2023-03-02T12:56:42.620Z,9.00
2023-03-02T12:59:22.093Z,10.70
2023-03-02T13:01:49.730Z,8.80
2023-03-02T13:04:27.185Z,9.50
2023-03-02T13:06:55.088Z,10.60
2023-03-02T13:09:23.072Z,9.50
2023-03-02T13:11:50.906Z,9.00
2023-03-02T13:14:20.835Z,9.60
2023-03-02T13:17:00.224Z,8.00
2023-03-02T13:19:28.659Z,10.60
2023-03-02T13:21:56.756Z,8.80
2023-03-02T13:24:44.696Z,8.30
2023-03-02T13:27:21.331Z,9.50
2023-03-02T13:29:50.235Z,8.50
2023-03-02T13:34:55.363Z,9.30
2023-03-02T13:37:34.760Z,9.40
2023-03-02T13:40:05.007Z,8.00
2023-03-02T13:42:40.568Z,6.60
2023-03-02T13:45:29.516Z,8.90
2023-03-02T13:47:59.714Z,8.80
2023-03-02T13:50:31.162Z,9.10
2023-03-02T13:53:02.193Z,8.40
2023-03-02T13:55:29.817Z,9.00
2023-03-02T13:57:58.116Z,9.40
2023-03-02T14:00:33.152Z,8.80
2023-03-02T14:03:01.597Z,10.90
2023-03-02T14:05:29.841Z,12.60
2023-03-02T14:07:57.460Z,12.50
2023-03-02T14:10:25.654Z,12.00
2023-03-02T14:13:03.427Z,12.50
2023-03-02T14:15:31.715Z,12.10
2023-03-02T14:18:00.353Z,12.10
2023-03-02T14:20:27.960Z,13.30
2023-03-02T14:22:55.642Z,13.20
2023-03-02T14:25:23.302Z,12.30
2023-03-02T14:27:50.876Z,12.20
2023-03-02T14:30:20.935Z,11.10
2023-03-02T14:32:49.512Z,12.60
2023-03-02T14:35:17.104Z,12.10
2023-03-02T14:37:48.642Z,12.70
2023-03-02T14:40:27.557Z,14.00
2023-03-02T14:42:55.235Z,14.50
2023-03-02T14:45:22.876Z,14.80
2023-03-02T14:47:50.475Z,14.90
2023-03-02T14:50:18.177Z,14.30
2023-03-02T14:52:49.677Z,15.00
2023-03-02T14:55:28.891Z,14.50
2023-03-02T14:58:03.444Z,14.20
2023-03-02T15:00:31.482Z,13.90
2023-03-02T15:02:59.397Z,14.70
2023-03-02T15:05:27.124Z,12.80
2023-03-02T15:07:54.863Z,13.50
2023-03-02T15:10:24.342Z,12.20
2023-03-02T15:12:51.993Z,14.70
2023-03-02T15:15:19.597Z,13.80
2023-03-02T15:17:47.199Z,11.30
2023-03-02T15:20:16.111Z,12.20
2023-03-02T15:22:43.847Z,14.00
2023-03-02T15:25:11.568Z,14.60
2023-03-02T15:27:39.179Z,17.70
2023-03-02T15:30:07.511Z,13.10
2023-03-02T15:32:36.662Z,13.10
2023-03-02T15:35:05.075Z,16.60
2023-03-02T15:37:32.678Z,14.90
2023-03-02T15:40:00.324Z,16.80
2023-03-02T15:42:27.857Z,16.90
2023-03-02T15:44:58.286Z,18.10
2023-03-02T15:47:26.024Z,16.40
2023-03-02T15:49:53.644Z,17.40
2023-03-02T15:52:21.234Z,15.90
2023-03-02T15:54:48.876Z,16.10
2023-03-02T15:57:16.521Z,14.70
2023-03-02T15:59:44.301Z,15.70
2023-03-02T16:02:14.186Z,14.60
2023-03-02T16:04:42.725Z,16.60
2023-03-02T16:07:10.318Z,17.40
2023-03-02T16:09:37.894Z,16.60
2023-03-02T16:12:06.171Z,17.00
2023-03-02T16:14:34.196Z,15.60
2023-03-02T16:17:01.889Z,15.90
2023-03-02T16:19:29.554Z,15.10
2023-03-02T16:21:57.225Z,15.70
2023-03-02T16:24:25.056Z,14.30
2023-03-02T16:26:53.624Z,17.80
2023-03-02T16:29:21.746Z,14.40
2023-03-02T16:31:49.774Z,18.30
2023-03-02T16:34:17.312Z,18.20
2023-03-02T16:36:45.441Z,16.10
2023-03-02T16:39:13.351Z,22.40
2023-03-02T16:41:43.496Z,18.40
2023-03-02T16:44:11.796Z,18.10
2023-03-02T16:46:39.405Z,20.00
2023-03-02T16:49:07.420Z,23.10
2023-03-02T16:51:35.410Z,20.00
2023-03-02T16:54:03.967Z,19.80
2023-03-02T16:56:31.519Z,22.70
2023-03-02T16:59:00.390Z,19.20
2023-03-02T17:01:28.359Z,19.90
2023-03-02T17:03:56.486Z,18.40
2023-03-02T17:06:24.836Z,21.10
2023-03-02T17:08:52.461Z,17.00
2023-03-02T17:11:20.560Z,20.70
2023-03-02T17:13:48.130Z,19.40
2023-03-02T17:16:15.769Z,22.30
2023-03-02T17:18:44.041Z,25.60
2023-03-02T17:21:11.632Z,33.70
2023-03-02T17:23:39.233Z,88.80
2023-03-02T17:26:06.840Z,98.70
2023-03-02T17:28:34.421Z,74.10
2023-03-02T17:31:04.238Z,56.70
2023-03-02T17:33:32.265Z,38.80
2023-03-02T17:36:04.398Z,34.00
2023-03-02T17:38:32.068Z,33.10
2023-03-02T17:41:06.975Z,37.70
2023-03-02T17:43:36.496Z,32.70
2023-03-02T17:46:25.231Z,36.10
2023-03-02T17:48:56.632Z,29.30
2023-03-02T17:51:25.487Z,27.50
2023-03-02T17:53:54.512Z,26.40
2023-03-02T17:56:25.603Z,28.30
2023-03-02T17:59:00.890Z,31.40
2023-03-02T18:01:29.583Z,28.40
2023-03-02T18:03:57.733Z,28.20
2023-03-02T18:06:25.409Z,30.40
2023-03-02T18:08:52.992Z,29.30
2023-03-02T18:11:22.623Z,29.90
2023-03-02T18:13:50.613Z,38.10
2023-03-02T18:16:18.221Z,35.70
2023-03-02T18:18:45.865Z,42.70
2023-03-02T18:21:13.427Z,46.10
2023-03-02T18:23:41.232Z,47.60
2023-03-02T18:26:08.855Z,53.30
2023-03-02T18:28:36.411Z,47.00
2023-03-02T18:31:04.082Z,41.20
2023-03-02T18:33:31.671Z,41.40
2023-03-02T18:35:59.272Z,40.50
2023-03-02T18:38:27.010Z,46.20
2023-03-02T18:40:54.695Z,55.20
2023-03-02T18:43:22.297Z,72.80
2023-03-02T18:45:49.908Z,70.40
2023-03-02T18:48:20.065Z,80.60
2023-03-02T18:50:47.770Z,58.80
2023-03-02T18:53:15.916Z,42.20
2023-03-02T18:55:43.518Z,42.40
2023-03-02T18:58:17.657Z,41.40
2023-03-02T19:00:46.440Z,44.90
2023-03-02T19:03:16.363Z,47.10
2023-03-02T19:05:44.844Z,44.10
2023-03-02T19:08:12.504Z,47.20
2023-03-02T19:10:40.483Z,62.30
2023-03-02T19:13:08.550Z,70.40
2023-03-02T19:15:36.068Z,77.60
2023-03-02T19:18:03.812Z,74.60
2023-03-02T19:20:31.401Z,59.50
2023-03-02T19:22:59.204Z,56.00
2023-03-02T19:25:27.105Z,55.50
2023-03-02T19:27:54.718Z,56.40
2023-03-02T19:30:25.301Z,65.20
2023-03-02T19:32:53.567Z,60.50
2023-03-02T19:35:23.912Z,61.40
2023-03-02T19:37:52.086Z,56.70
2023-03-02T19:40:22.383Z,55.20
2023-03-02T19:42:50.525Z,53.10
2023-03-02T19:45:22.199Z,54.30
2023-03-02T19:47:49.824Z,59.50
2023-03-02T19:50:18.952Z,61.80
2023-03-02T19:52:47.457Z,59.50
2023-03-02T19:55:16.282Z,62.10
2023-03-02T19:57:45.001Z,63.30
2023-03-02T20:00:15.697Z,70.50
2023-03-02T20:02:43.442Z,70.80
2023-03-02T20:05:11.580Z,110.10
2023-03-02T20:07:41.655Z,115.60
2023-03-02T20:10:11.302Z,121.50
2023-03-02T20:12:38.854Z,104.30
2023-03-02T20:15:07.066Z,93.30
2023-03-02T20:17:34.822Z,96.80
2023-03-02T20:20:02.429Z,89.10
2023-03-02T20:22:30.018Z,88.30
2023-03-02T20:24:57.531Z,90.60
2023-03-02T20:27:25.281Z,88.00
2023-03-02T20:29:52.862Z,86.40
2023-03-02T20:32:20.566Z,98.40
2023-03-02T20:34:48.336Z,118.90
2023-03-02T20:37:15.973Z,95.20
2023-03-02T20:39:45.052Z,96.70
2023-03-02T20:42:12.667Z,95.50
2023-03-02T20:44:40.472Z,88.50
2023-03-02T20:47:13.664Z,85.60
2023-03-02T20:49:41.468Z,92.50
2023-03-02T20:52:09.901Z,106.90
2023-03-02T20:54:41.763Z,101.30
2023-03-02T20:57:14.768Z,96.60
2023-03-02T20:59:43.284Z,94.30
2023-03-02T21:02:11.064Z,97.60
2023-03-02T21:04:38.664Z,91.40
2023-03-02T21:07:07.155Z,82.90
2023-03-02T21:09:34.778Z,82.70
2023-03-02T21:12:04.149Z,76.90
2023-03-02T21:14:31.967Z,70.70
2023-03-02T21:17:01.495Z,61.20
2023-03-02T21:19:29.134Z,93.30
2023-03-02T21:21:57.483Z,94.50
2023-03-02T21:24:25.026Z,95.00
2023-03-02T21:26:53.951Z,87.70
2023-03-02T21:29:24.963Z,69.10
2023-03-02T21:31:53.100Z,76.50
2023-03-02T21:34:20.811Z,75.30
2023-03-02T21:36:49.205Z,76.10
2023-03-02T21:39:16.826Z,69.90
2023-03-02T21:41:44.366Z,63.60
2023-03-02T21:44:11.974Z,83.40
2023-03-02T21:46:39.559Z,83.50
2023-03-02T21:49:07.641Z,77.50
2023-03-02T21:51:35.340Z,96.90
2023-03-02T21:54:03.035Z,100.70
2023-03-02T21:56:31.198Z,97.30
2023-03-02T21:58:58.967Z,93.80
2023-03-02T22:01:26.849Z,98.80
2023-03-02T22:03:54.492Z,97.40
2023-03-02T22:06:28.371Z,112.30
2023-03-02T22:08:56.170Z,101.50
2023-03-02T22:11:30.224Z,115.00
2023-03-02T22:14:01.054Z,94.60
2023-03-02T22:16:34.927Z,119.80
2023-03-02T22:19:17.897Z,97.20
2023-03-02T22:24:29.934Z,84.60
2023-03-02T22:27:19.046Z,79.90
2023-03-02T22:29:47.950Z,83.20
2023-03-02T22:32:25.194Z,77.30
2023-03-02T22:34:55.891Z,78.50
2023-03-02T22:37:27.535Z,75.30
2023-03-02T22:39:57.869Z,77.60
2023-03-02T22:42:28.950Z,78.90
2023-03-02T22:45:23.610Z,81.10
2023-03-02T22:47:53.370Z,82.60
2023-03-02T22:50:25.358Z,80.80
2023-03-02T22:52:55.152Z,75.10
2023-03-02T22:55:38.760Z,97.30
2023-03-02T22:58:30.836Z,89.60
2023-03-02T23:01:00.503Z,87.00
2023-03-02T23:03:40.593Z,79.10
2023-03-02T23:06:45.428Z,86.90
2023-03-02T23:09:16.398Z,89.10
2023-03-02T23:11:45.165Z,94.70
2023-03-02T23:14:23.810Z,90.50
2023-03-02T23:17:05.554Z,88.00
2023-03-02T23:19:33.073Z,90.90
2023-03-02T23:22:00.654Z,78.30
2023-03-02T23:24:28.269Z,88.60
2023-03-02T23:26:56.015Z,98.70
2023-03-02T23:29:23.648Z,87.00
2023-03-02T23:31:51.248Z,88.00
2023-03-02T23:34:18.795Z,88.00
2023-03-02T23:36:46.328Z,93.90
2023-03-02T23:39:13.893Z,90.10
2023-03-02T23:41:41.642Z,121.10
2023-03-02T23:44:09.240Z,111.70
2023-03-02T23:46:36.752Z,99.10
2023-03-02T23:49:04.357Z,97.50
2023-03-02T23:51:32.026Z,96.40
2023-03-02T23:53:59.586Z,92.90
2023-03-02T23:56:27.135Z,90.50
2023-03-02T23:58:54.721Z,102.20
